War Ar Mor — FGF5962 — position and weather

sailwx.info

Track history (hours):
 
Tides and Currents Weather Stations Pressure Air Temp Water Temp Dewpoint Dewpoint Depression Visibility Wind Speed Wind Dir Waves Ship Positions

War Ar Mor

Last reported at 2017-Oct-28 09:13 UTC. Time now 2017-Nov-20 17:12 UTC.
Position N 48°39' W 002°49'.
Warning: this ship's position is 23 days out of date.

Length 11 m.

Type: Sailing vessel. MMSI: 227735710.

Date/timePositionNaut miles runAvg speedWind from/ knotsBaromVisibWave heightAir tempDewpointWater temp
2017-Oct-28 09:13N 48°39' W 002°49'1 3.8
2017-Oct-28 08:51N 48°38' W 002°48'2 4.5
2017-Oct-28 08:27N 48°36' W 002°47'3 0.1
2017-Oct-26 14:46N 48°39' W 002°49'0 0.0
2017-Oct-26 14:29N 48°39' W 002°49'1 2.3
2017-Oct-26 14:00N 48°40' W 002°50'2 4.2
2017-Oct-26 13:30N 48°41' W 002°53'2 3.4
2017-Oct-26 13:00N 48°43' W 002°54'2 3.2
2017-Oct-26 12:30N 48°43' W 002°56'0 0.9
2017-Oct-26 11:59N 48°44' W 002°56'0 0.0
2017-Oct-26 11:29N 48°44' W 002°56'0 0.0
2017-Oct-26 10:53N 48°44' W 002°56'0 0.0
2017-Oct-26 10:29N 48°44' W 002°56'0 0.1
2017-Oct-26 10:00N 48°44' W 002°56'3 6.1
2017-Oct-26 09:30N 48°42' W 002°52'3 4.9
2017-Oct-26 08:58N 48°40' W 002°50'1 2.9
2017-Oct-26 08:30N 48°39' W 002°49'  
Track history (hours):
 
Tides and Currents Weather Stations Pressure Air Temp Water Temp Dewpoint Dewpoint Depression Visibility Wind Speed Wind Dir Waves Ship Positions

War Ar Mor

Last reported at 2017-Oct-28 09:13 UTC. Time now 2017-Nov-20 17:12 UTC.
Position N 48°39' W 002°49'.
Warning: this ship's position is 23 days out of date.

Length 11 m.

Type: Sailing vessel. MMSI: 227735710.

Date/timePositionNaut miles runAvg speedWind from/ knotsBaromVisibWave heightAir tempDewpointWater temp
2017-Oct-28 09:13N 48°39' W 002°49'1 3.8
2017-Oct-28 08:51N 48°38' W 002°48'2 4.5
2017-Oct-28 08:27N 48°36' W 002°47'3 0.1
2017-Oct-26 14:46N 48°39' W 002°49'0 0.0
2017-Oct-26 14:29N 48°39' W 002°49'1 2.3
2017-Oct-26 14:00N 48°40' W 002°50'2 4.2
2017-Oct-26 13:30N 48°41' W 002°53'2 3.4
2017-Oct-26 13:00N 48°43' W 002°54'2 3.2
2017-Oct-26 12:30N 48°43' W 002°56'0 0.9
2017-Oct-26 11:59N 48°44' W 002°56'0 0.0
2017-Oct-26 11:29N 48°44' W 002°56'0 0.0
2017-Oct-26 10:53N 48°44' W 002°56'0 0.0
2017-Oct-26 10:29N 48°44' W 002°56'0 0.1
2017-Oct-26 10:00N 48°44' W 002°56'3 6.1
2017-Oct-26 09:30N 48°42' W 002°52'3 4.9
2017-Oct-26 08:58N 48°40' W 002°50'1 2.9
2017-Oct-26 08:30N 48°39' W 002°49'  

Dump ship's entire track history